Terminal Aerodrome Forecast
Issued by NWS

Home | Current Version | Previous Version | Text Only | Print | Product List | Glossary On
Versions: 1 2 3 4 5 6 7 8 9 10 11 12 13 14 15 16 17 18 19 20 21 22 23 24 25 26 27 28 29 30 31 32 33
000
FTUS43 KDLH 312300
TAFBRD
TAF
KBRD 312320Z 0100/0124 20010KT P6SM -TSRA BKN040CB
     FM010100 26010KT P6SM VCSH BKN040
     FM010400 27002KT 4SM -SHRA BR SCT015 BKN040
     FM011200 31007KT P6SM BKN015
     FM011500 31010KT P6SM SCT030=

USA.gov is the U.S. government's official web portal to all federal, state and local government web resources and services.